createdAt,value
2023-10-06T00:01:22.596Z,9.60
2023-10-06T00:04:00.378Z,10.40
2023-10-06T00:06:29.142Z,11.60
2023-10-06T00:08:59.666Z,10.60
2023-10-06T00:11:32.687Z,9.90
2023-10-06T00:14:08.610Z,11.40
2023-10-06T00:16:43.666Z,10.20
2023-10-06T00:19:28.075Z,11.10
2023-10-06T00:22:07.737Z,10.00
2023-10-06T00:27:12.116Z,11.00
2023-10-06T00:29:45.058Z,9.00
2023-10-06T00:32:27.736Z,10.20
2023-10-06T00:35:09.682Z,10.30
2023-10-06T00:37:41.122Z,10.20
2023-10-06T00:40:13.133Z,9.80
2023-10-06T00:42:43.134Z,9.60
2023-10-06T00:45:13.509Z,10.80
2023-10-06T00:47:42.521Z,10.70
2023-10-06T00:50:16.986Z,9.00
2023-10-06T00:52:45.620Z,8.90
2023-10-06T00:55:15.771Z,9.10
2023-10-06T00:57:48.904Z,8.80
2023-10-06T01:00:23.000Z,9.60
2023-10-06T01:02:54.072Z,9.50
2023-10-06T01:05:26.831Z,8.60
2023-10-06T01:07:57.961Z,10.10
2023-10-06T01:10:35.879Z,10.60
2023-10-06T01:15:50.634Z,9.00
2023-10-06T01:18:24.575Z,10.30
2023-10-06T01:20:56.285Z,9.50
2023-10-06T01:23:30.346Z,9.20
2023-10-06T01:26:01.456Z,9.20
2023-10-06T01:28:36.123Z,10.50
2023-10-06T01:31:07.799Z,8.80
2023-10-06T01:36:16.413Z,10.60
2023-10-06T01:38:49.943Z,10.20
2023-10-06T01:41:23.024Z,9.90
2023-10-06T01:43:52.776Z,9.90
2023-10-06T01:46:22.654Z,9.70
2023-10-06T01:48:51.324Z,10.50
2023-10-06T01:51:25.156Z,9.40
2023-10-06T01:53:55.235Z,9.70
2023-10-06T01:56:26.473Z,9.20
2023-10-06T01:58:58.688Z,9.80
2023-10-06T02:01:27.269Z,9.70
2023-10-06T02:03:56.232Z,9.50
2023-10-06T02:06:27.509Z,10.10
2023-10-06T02:08:59.996Z,8.60
2023-10-06T02:14:00.011Z,9.50
2023-10-06T02:18:58.910Z,9.30
2023-10-06T02:21:30.249Z,9.80
2023-10-06T02:24:04.965Z,9.80
2023-10-06T02:26:37.959Z,10.20
2023-10-06T02:29:17.724Z,10.40
2023-10-06T02:31:46.784Z,9.30
2023-10-06T02:34:23.046Z,9.80
2023-10-06T02:36:56.869Z,10.20
2023-10-06T02:39:32.673Z,9.50
2023-10-06T02:42:04.048Z,9.00
2023-10-06T02:44:39.365Z,9.20
2023-10-06T02:47:12.499Z,9.10
2023-10-06T02:49:49.830Z,9.10
2023-10-06T02:52:22.333Z,9.40
2023-10-06T02:55:06.896Z,10.20
2023-10-06T02:57:37.748Z,10.30
2023-10-06T03:00:24.409Z,10.00
2023-10-06T03:02:56.917Z,9.50
2023-10-06T03:05:33.316Z,9.20
2023-10-06T03:08:10.477Z,9.80
2023-10-06T03:10:45.407Z,9.60
2023-10-06T03:13:26.472Z,9.60
2023-10-06T03:15:55.125Z,9.60
2023-10-06T03:18:25.227Z,10.10
2023-10-06T03:21:01.618Z,10.20
2023-10-06T03:23:33.582Z,10.10
2023-10-06T03:26:07.864Z,9.40
2023-10-06T03:28:38.144Z,10.00
2023-10-06T03:31:24.365Z,9.30
2023-10-06T03:33:56.264Z,9.40
2023-10-06T03:36:38.322Z,9.70
2023-10-06T03:39:09.108Z,10.40
2023-10-06T03:41:45.479Z,9.70
2023-10-06T03:46:50.594Z,9.90
2023-10-06T03:49:20.784Z,9.70
2023-10-06T03:51:54.146Z,9.30
2023-10-06T03:54:22.963Z,9.60
2023-10-06T03:56:56.310Z,9.30
2023-10-06T03:59:27.701Z,10.60
2023-10-06T04:01:58.895Z,9.50
2023-10-06T04:06:59.853Z,9.60
2023-10-06T04:09:31.146Z,9.70
2023-10-06T04:12:03.667Z,9.40
2023-10-06T04:14:35.476Z,9.60
2023-10-06T04:17:07.071Z,10.00
2023-10-06T04:19:36.568Z,9.40
2023-10-06T04:24:37.033Z,9.60
2023-10-06T04:27:07.174Z,10.00
2023-10-06T04:32:16.007Z,9.50
2023-10-06T04:34:45.968Z,9.60
2023-10-06T04:37:16.054Z,9.70
2023-10-06T04:39:45.776Z,10.20
2023-10-06T04:42:17.084Z,9.50
2023-10-06T04:44:49.714Z,9.50
2023-10-06T04:47:18.368Z,9.60
2023-10-06T04:49:47.372Z,9.70
2023-10-06T04:52:18.388Z,10.30
2023-10-06T04:54:49.047Z,9.60
2023-10-06T04:57:20.155Z,9.70
2023-10-06T04:59:51.909Z,9.80
2023-10-06T05:02:24.765Z,10.00
2023-10-06T05:04:54.759Z,9.90
2023-10-06T05:07:25.584Z,10.10
2023-10-06T05:09:58.361Z,9.60
2023-10-06T05:12:28.232Z,9.70
2023-10-06T05:14:58.449Z,9.50
2023-10-06T05:22:29.847Z,9.60
2023-10-06T05:25:02.210Z,9.60
2023-10-06T05:27:35.364Z,9.40
2023-10-06T05:30:06.846Z,9.80
2023-10-06T05:32:36.599Z,9.50
2023-10-06T05:35:07.194Z,9.50
2023-10-06T05:37:35.860Z,10.00
2023-10-06T05:40:05.775Z,9.60
2023-10-06T05:42:37.555Z,11.10
2023-10-06T05:45:16.494Z,9.50
2023-10-06T05:50:28.320Z,9.50
2023-10-06T05:53:01.621Z,9.90
2023-10-06T05:58:05.325Z,9.80
2023-10-06T06:00:36.030Z,9.90
2023-10-06T06:03:11.544Z,9.90
2023-10-06T06:05:42.480Z,10.20
2023-10-06T06:08:12.323Z,10.10
2023-10-06T06:10:42.573Z,9.30
2023-10-06T06:13:15.398Z,9.80
2023-10-06T06:15:46.982Z,10.30
2023-10-06T06:18:15.564Z,10.20
2023-10-06T06:20:47.163Z,10.40
2023-10-06T06:23:16.905Z,10.30
2023-10-06T06:25:48.117Z,10.60
2023-10-06T06:28:18.042Z,10.60
2023-10-06T06:30:49.620Z,10.80
2023-10-06T06:33:23.534Z,10.90
2023-10-06T06:35:52.740Z,11.00
2023-10-06T06:38:27.263Z,11.20
2023-10-06T06:43:33.023Z,10.10
2023-10-06T06:48:32.980Z,12.00
2023-10-06T06:51:02.671Z,12.10
2023-10-06T06:53:33.752Z,12.30
2023-10-06T06:58:38.553Z,12.90
2023-10-06T07:01:16.213Z,12.70
2023-10-06T07:03:46.361Z,13.30
2023-10-06T07:06:17.795Z,13.40
2023-10-06T07:08:48.512Z,13.90
2023-10-06T07:11:19.479Z,14.20
2023-10-06T07:13:50.690Z,14.70
2023-10-06T07:18:55.399Z,14.70
2023-10-06T07:21:25.366Z,15.40
2023-10-06T07:23:57.787Z,15.30
2023-10-06T07:26:29.027Z,15.40
2023-10-06T07:29:01.431Z,15.60
2023-10-06T07:31:31.186Z,16.00
2023-10-06T07:34:05.825Z,16.40
2023-10-06T07:36:36.894Z,16.00
2023-10-06T07:39:09.902Z,16.90
2023-10-06T07:41:40.436Z,16.60
2023-10-06T07:44:10.607Z,17.10
2023-10-06T07:46:40.464Z,16.40
2023-10-06T07:49:10.203Z,16.20
2023-10-06T07:51:40.104Z,16.50
2023-10-06T07:54:10.980Z,16.90
2023-10-06T07:59:13.343Z,17.40
2023-10-06T08:01:45.255Z,17.10
2023-10-06T08:04:14.817Z,16.60
2023-10-06T08:06:46.772Z,17.00
2023-10-06T08:09:18.586Z,16.50
2023-10-06T08:14:21.779Z,17.70
2023-10-06T08:16:53.174Z,17.40
2023-10-06T08:19:23.166Z,18.30
2023-10-06T08:21:52.000Z,18.30
2023-10-06T08:24:22.072Z,18.40
2023-10-06T08:26:55.874Z,18.70
2023-10-06T08:29:28.288Z,18.00
2023-10-06T08:34:30.321Z,17.40
2023-10-06T08:37:02.023Z,18.20
2023-10-06T08:39:41.143Z,19.20
2023-10-06T08:42:15.298Z,19.30
2023-10-06T08:44:48.052Z,19.10
2023-10-06T08:47:28.053Z,19.10
2023-10-06T08:50:03.037Z,19.00
2023-10-06T08:52:34.150Z,17.90
2023-10-06T08:55:03.843Z,17.70
2023-10-06T08:57:32.605Z,17.80
2023-10-06T09:00:07.903Z,18.20
2023-10-06T09:02:38.138Z,19.00
2023-10-06T09:05:12.583Z,19.10
2023-10-06T09:07:42.476Z,19.10
2023-10-06T09:10:19.539Z,19.40
2023-10-06T09:13:03.827Z,21.70
2023-10-06T09:15:37.332Z,20.20
2023-10-06T09:18:21.750Z,19.70
2023-10-06T09:20:51.641Z,20.90
2023-10-06T09:23:33.768Z,20.80
2023-10-06T09:26:04.351Z,20.50
2023-10-06T09:28:34.488Z,20.00
2023-10-06T09:31:11.727Z,19.10
2023-10-06T09:33:49.674Z,20.00
2023-10-06T09:41:53.131Z,20.20
2023-10-06T09:44:24.374Z,20.70
2023-10-06T09:46:55.608Z,21.10
2023-10-06T09:49:30.533Z,21.10
2023-10-06T09:52:03.932Z,21.00
2023-10-06T09:54:34.051Z,21.00
2023-10-06T09:57:05.532Z,21.00
2023-10-06T09:59:35.345Z,21.20
2023-10-06T10:02:09.143Z,20.20
2023-10-06T10:04:38.274Z,19.00
2023-10-06T10:07:12.072Z,19.30
2023-10-06T10:09:44.888Z,20.20
2023-10-06T10:12:37.423Z,20.40
2023-10-06T10:15:27.288Z,20.00
2023-10-06T10:18:10.238Z,19.10
2023-10-06T10:23:18.460Z,19.30
2023-10-06T10:28:22.080Z,19.40
2023-10-06T10:31:00.952Z,19.90
2023-10-06T10:33:40.606Z,19.50
2023-10-06T10:36:27.034Z,18.70
2023-10-06T10:39:10.746Z,19.40
2023-10-06T10:41:43.957Z,19.50
2023-10-06T10:44:25.365Z,20.60
2023-10-06T10:47:04.280Z,20.80
2023-10-06T10:49:43.232Z,21.80
2023-10-06T10:52:14.485Z,23.30
2023-10-06T10:54:46.778Z,23.30
2023-10-06T10:57:22.970Z,24.30
2023-10-06T11:00:17.896Z,24.40
2023-10-06T11:03:03.601Z,24.10
2023-10-06T11:05:35.346Z,24.20
2023-10-06T11:08:07.106Z,23.80
2023-10-06T11:10:39.461Z,24.50
2023-10-06T11:13:20.744Z,25.00
2023-10-06T11:15:51.912Z,24.80
2023-10-06T11:18:24.863Z,24.80
2023-10-06T11:20:56.633Z,24.50
2023-10-06T11:23:25.813Z,26.00
2023-10-06T11:25:56.946Z,25.70
2023-10-06T11:28:28.649Z,25.20
2023-10-06T11:30:59.934Z,25.10
2023-10-06T11:33:33.168Z,24.30
2023-10-06T11:36:07.071Z,24.60
2023-10-06T11:38:37.289Z,23.00
2023-10-06T11:41:07.486Z,24.40
2023-10-06T11:43:36.040Z,22.90
2023-10-06T11:46:07.328Z,21.50
2023-10-06T11:48:37.766Z,21.60
2023-10-06T11:51:15.709Z,23.40
2023-10-06T11:53:45.963Z,23.30
2023-10-06T11:56:19.070Z,25.00
2023-10-06T11:58:49.616Z,26.00
2023-10-06T12:01:34.280Z,26.50
2023-10-06T12:04:06.694Z,25.10
2023-10-06T12:06:41.484Z,25.90
2023-10-06T12:09:14.932Z,25.60
2023-10-06T12:11:45.985Z,25.20
2023-10-06T12:14:19.741Z,25.40
2023-10-06T12:16:50.899Z,25.10
2023-10-06T12:21:50.250Z,25.20
2023-10-06T12:26:52.537Z,24.10
2023-10-06T12:29:23.292Z,24.40
2023-10-06T12:31:53.319Z,23.80
2023-10-06T12:34:23.575Z,21.70
2023-10-06T12:37:04.163Z,21.90
2023-10-06T12:39:36.183Z,21.20
2023-10-06T12:42:09.309Z,20.60
2023-10-06T12:47:15.451Z,19.20
2023-10-06T12:49:46.994Z,19.90
2023-10-06T12:52:22.694Z,19.90
2023-10-06T12:54:55.681Z,19.70
2023-10-06T12:57:25.553Z,20.50
2023-10-06T12:59:56.777Z,19.00
2023-10-06T13:02:27.229Z,19.00
2023-10-06T13:04:59.072Z,19.80
2023-10-06T13:07:32.617Z,20.40
2023-10-06T13:10:05.096Z,19.20
2023-10-06T13:12:40.876Z,19.70
2023-10-06T13:15:15.972Z,20.00
2023-10-06T13:17:50.836Z,20.00
2023-10-06T13:22:51.301Z,19.50
2023-10-06T13:25:21.593Z,18.60
2023-10-06T13:27:52.773Z,18.60
2023-10-06T13:32:59.741Z,19.30
2023-10-06T13:35:28.958Z,19.80
2023-10-06T13:38:01.035Z,19.80
2023-10-06T13:40:30.681Z,19.40
2023-10-06T13:42:59.715Z,18.70
2023-10-06T13:45:31.187Z,18.60
2023-10-06T13:50:37.832Z,19.60
2023-10-06T13:53:11.305Z,19.30
2023-10-06T13:55:41.565Z,19.60
2023-10-06T13:58:10.379Z,19.60
2023-10-06T14:00:41.679Z,19.60
2023-10-06T14:03:14.985Z,19.10
2023-10-06T14:05:45.332Z,19.50
2023-10-06T14:08:19.192Z,19.10
2023-10-06T14:10:52.405Z,19.20
2023-10-06T14:13:26.246Z,19.90
2023-10-06T14:16:10.337Z,19.80
2023-10-06T14:18:42.006Z,19.40
2023-10-06T14:21:13.020Z,20.10
2023-10-06T14:23:48.450Z,19.60
2023-10-06T14:26:25.907Z,20.20
2023-10-06T14:28:57.125Z,19.90
2023-10-06T14:31:35.691Z,20.30
2023-10-06T14:34:35.918Z,20.20
2023-10-06T14:37:15.122Z,20.20
2023-10-06T14:40:12.305Z,19.30
2023-10-06T14:43:00.508Z,19.80
2023-10-06T14:45:47.976Z,19.70
2023-10-06T14:48:18.227Z,18.50
2023-10-06T14:50:58.073Z,19.00
2023-10-06T14:53:28.198Z,19.30
2023-10-06T14:55:59.632Z,19.50
2023-10-06T14:58:28.243Z,18.90
2023-10-06T15:01:04.106Z,18.60
2023-10-06T15:03:33.819Z,18.70
2023-10-06T15:06:07.669Z,18.70
2023-10-06T15:08:37.730Z,18.60
2023-10-06T15:11:11.077Z,19.20
2023-10-06T15:13:40.713Z,18.80
2023-10-06T15:16:14.114Z,18.90
2023-10-06T15:18:48.625Z,19.20
2023-10-06T15:21:19.739Z,18.70
2023-10-06T15:23:52.991Z,18.10
2023-10-06T15:26:28.644Z,18.10
2023-10-06T15:28:57.317Z,18.60
2023-10-06T15:31:29.342Z,18.40
2023-10-06T15:33:58.591Z,18.20
2023-10-06T15:36:28.393Z,18.30
2023-10-06T15:39:18.758Z,18.00
2023-10-06T15:41:51.083Z,18.20
2023-10-06T15:44:21.934Z,18.20
2023-10-06T15:46:51.881Z,17.40
2023-10-06T15:49:20.833Z,17.60
2023-10-06T15:56:53.283Z,17.50
2023-10-06T16:01:56.400Z,17.60
2023-10-06T16:04:29.210Z,17.90
2023-10-06T16:07:00.769Z,16.80
2023-10-06T16:09:29.691Z,17.40
2023-10-06T16:11:59.721Z,17.40
2023-10-06T16:14:29.847Z,17.70
2023-10-06T16:17:01.143Z,16.80
2023-10-06T16:19:31.120Z,17.70
2023-10-06T16:24:30.717Z,17.20
2023-10-06T16:27:01.776Z,17.20
2023-10-06T16:32:04.491Z,17.40
2023-10-06T16:34:34.396Z,17.30
2023-10-06T16:37:05.447Z,17.10
2023-10-06T16:39:38.687Z,16.70
2023-10-06T16:42:10.184Z,16.90
2023-10-06T16:49:43.686Z,16.50
2023-10-06T16:52:13.188Z,16.60
2023-10-06T16:54:46.869Z,16.80
2023-10-06T16:57:19.716Z,16.30
2023-10-06T16:59:50.222Z,16.50
2023-10-06T17:02:18.975Z,16.40
2023-10-06T17:04:47.609Z,16.20
2023-10-06T17:07:16.273Z,15.70
2023-10-06T17:09:47.679Z,16.30
2023-10-06T17:12:18.854Z,15.90
2023-10-06T17:14:47.602Z,15.30
2023-10-06T17:17:18.840Z,16.00
2023-10-06T17:19:48.517Z,15.90
2023-10-06T17:22:18.005Z,15.70
2023-10-06T17:27:23.620Z,15.80
2023-10-06T17:29:57.102Z,15.90
2023-10-06T17:32:29.318Z,15.70
2023-10-06T17:34:58.319Z,15.80
2023-10-06T17:40:01.526Z,15.20
2023-10-06T17:42:32.081Z,15.60
2023-10-06T17:45:04.249Z,15.90
2023-10-06T17:50:02.864Z,15.50
2023-10-06T17:52:31.791Z,15.70
2023-10-06T17:55:02.777Z,15.30
2023-10-06T17:57:33.486Z,15.90
2023-10-06T18:00:09.493Z,15.60
2023-10-06T18:02:42.678Z,15.30
2023-10-06T18:05:12.693Z,15.80
2023-10-06T18:07:42.594Z,15.00
2023-10-06T18:10:13.353Z,15.50
2023-10-06T18:12:44.967Z,15.70
2023-10-06T18:15:14.044Z,15.60
2023-10-06T18:17:44.140Z,15.30
2023-10-06T18:20:14.826Z,14.90
2023-10-06T18:22:43.460Z,15.70
2023-10-06T18:27:45.161Z,15.40
2023-10-06T18:30:17.501Z,15.60
2023-10-06T18:32:48.079Z,15.20
2023-10-06T18:35:16.833Z,14.90
2023-10-06T18:37:45.664Z,15.50
2023-10-06T18:40:15.720Z,15.20
2023-10-06T18:42:46.378Z,15.20
2023-10-06T18:45:16.310Z,15.10
2023-10-06T18:47:47.645Z,15.30
2023-10-06T18:52:50.822Z,15.40
2023-10-06T18:55:24.960Z,15.10
2023-10-06T18:58:02.153Z,14.90
2023-10-06T19:00:34.124Z,15.20
2023-10-06T19:03:02.749Z,15.00
2023-10-06T19:05:31.394Z,15.00
2023-10-06T19:07:59.889Z,15.20
2023-10-06T19:10:28.597Z,14.50
2023-10-06T19:13:01.006Z,15.00
2023-10-06T19:15:32.929Z,15.40
2023-10-06T19:20:34.228Z,15.20
2023-10-06T19:25:31.829Z,14.70
2023-10-06T19:28:03.144Z,15.20
2023-10-06T19:30:32.894Z,15.00
2023-10-06T19:35:31.752Z,15.20
2023-10-06T19:38:03.417Z,15.20
2023-10-06T19:40:33.289Z,15.00
2023-10-06T19:43:06.009Z,15.00
2023-10-06T19:45:47.101Z,14.90
2023-10-06T19:48:17.627Z,14.80
2023-10-06T19:50:49.189Z,14.80
2023-10-06T19:53:19.537Z,14.40
2023-10-06T19:58:21.462Z,15.10
2023-10-06T20:00:52.660Z,14.80
2023-10-06T20:03:22.487Z,15.30
2023-10-06T20:05:54.739Z,14.90
2023-10-06T20:08:23.609Z,14.90
2023-10-06T20:10:56.619Z,14.80
2023-10-06T20:13:28.017Z,14.80
2023-10-06T20:15:58.668Z,15.00
2023-10-06T20:18:27.808Z,14.50
2023-10-06T20:20:56.558Z,15.00
2023-10-06T20:23:27.592Z,14.80
2023-10-06T20:25:56.693Z,14.60
2023-10-06T20:28:28.172Z,15.00
2023-10-06T20:30:57.840Z,15.50
2023-10-06T20:33:27.762Z,15.20
2023-10-06T20:38:26.665Z,14.70
2023-10-06T20:40:56.764Z,14.80
2023-10-06T20:43:28.127Z,14.50
2023-10-06T20:45:58.142Z,14.50
2023-10-06T20:48:28.087Z,14.10
2023-10-06T20:50:56.735Z,14.40
2023-10-06T20:53:25.631Z,14.30
2023-10-06T20:56:03.487Z,14.50
2023-10-06T20:58:36.286Z,14.60
2023-10-06T21:01:08.295Z,14.30
2023-10-06T21:03:38.146Z,14.30
2023-10-06T21:06:10.288Z,14.20
2023-10-06T21:08:40.491Z,14.50
2023-10-06T21:13:42.023Z,14.10
2023-10-06T21:16:13.058Z,14.30
2023-10-06T21:18:41.575Z,14.00
2023-10-06T21:21:11.655Z,13.70
2023-10-06T21:23:42.628Z,13.90
2023-10-06T21:28:46.774Z,14.10
2023-10-06T21:31:15.844Z,14.00
2023-10-06T21:33:45.572Z,13.90
2023-10-06T21:36:15.471Z,13.70
2023-10-06T21:38:46.378Z,13.60
2023-10-06T21:41:16.634Z,13.80
2023-10-06T21:43:47.995Z,13.90
2023-10-06T21:46:17.853Z,13.70
2023-10-06T21:48:48.796Z,13.60
2023-10-06T21:51:18.708Z,13.70
2023-10-06T21:53:50.093Z,13.90
2023-10-06T21:58:50.459Z,13.30
2023-10-06T22:01:23.170Z,13.70
2023-10-06T22:03:54.492Z,14.00
2023-10-06T22:06:24.956Z,13.70
2023-10-06T22:08:54.758Z,13.50
2023-10-06T22:11:27.018Z,13.90
2023-10-06T22:13:58.354Z,13.70
2023-10-06T22:16:28.460Z,13.50
2023-10-06T22:18:59.167Z,13.40
2023-10-06T22:21:27.733Z,13.50
2023-10-06T22:23:57.790Z,13.60
2023-10-06T22:26:29.053Z,13.50
2023-10-06T22:28:59.355Z,13.50
2023-10-06T22:31:28.139Z,13.30
2023-10-06T22:33:58.157Z,13.60
2023-10-06T22:36:29.301Z,13.60
2023-10-06T22:38:59.401Z,13.80
2023-10-06T22:41:29.697Z,13.70
2023-10-06T22:44:03.240Z,13.90
2023-10-06T22:46:31.905Z,13.60
2023-10-06T22:49:01.648Z,13.80
2023-10-06T22:51:30.816Z,13.60
2023-10-06T22:54:02.676Z,13.80
2023-10-06T22:56:32.703Z,13.80
2023-10-06T22:59:06.189Z,13.90
2023-10-06T23:01:36.009Z,13.90
2023-10-06T23:04:09.284Z,13.70
2023-10-06T23:06:40.077Z,13.80
2023-10-06T23:09:13.796Z,13.90
2023-10-06T23:11:46.437Z,13.80
2023-10-06T23:14:17.624Z,13.90
2023-10-06T23:16:47.746Z,13.80
2023-10-06T23:21:49.704Z,13.70
2023-10-06T23:24:18.229Z,13.90
2023-10-06T23:26:46.796Z,13.70
2023-10-06T23:29:23.515Z,13.90
2023-10-06T23:31:53.798Z,13.90
2023-10-06T23:34:24.854Z,14.00
2023-10-06T23:39:26.511Z,14.20
2023-10-06T23:41:56.237Z,13.60
2023-10-06T23:44:31.471Z,13.90
2023-10-06T23:47:03.962Z,13.70
2023-10-06T23:49:35.217Z,13.70
2023-10-06T23:52:06.194Z,13.70
2023-10-06T23:54:36.320Z,13.70
2023-10-06T23:57:09.515Z,13.70
2023-10-06T23:59:44.962Z,13.70
